sensor_id;sensor_type;location;lat;lon;timestamp;pressure;altitude;pressure_sealevel;temperature;humidity
55932;BME280;41837;55.700;37.984;2023-07-13T00:00:50;99137.44;;;11.92;100.00
55932;BME280;41837;55.700;37.984;2023-07-13T00:03:16;99136.09;;;11.85;100.00
55932;BME280;41837;55.700;37.984;2023-07-13T00:05:43;99136.75;;;11.88;100.00
55932;BME280;41837;55.700;37.984;2023-07-13T00:08:09;99131.03;;;11.82;100.00
55932;BME280;41837;55.700;37.984;2023-07-13T00:10:41;99134.03;;;11.90;100.00
55932;BME280;41837;55.700;37.984;2023-07-13T00:13:08;99134.94;;;11.74;100.00
55932;BME280;41837;55.700;37.984;2023-07-13T00:15:35;99139.97;;;11.77;100.00
55932;BME280;41837;55.700;37.984;2023-07-13T00:18:02;99137.09;;;11.82;100.00
55932;BME280;41837;55.700;37.984;2023-07-13T00:20:29;99131.38;;;11.91;100.00
55932;BME280;41837;55.700;37.984;2023-07-13T00:22:55;99133.19;;;11.89;100.00
55932;BME280;41837;55.700;37.984;2023-07-13T00:25:22;99128.31;;;11.83;100.00
55932;BME280;41837;55.700;37.984;2023-07-13T00:27:51;99132.69;;;11.83;100.00
55932;BME280;41837;55.700;37.984;2023-07-13T00:30:18;99129.63;;;11.90;100.00
55932;BME280;41837;55.700;37.984;2023-07-13T00:32:44;99130.84;;;11.85;100.00
55932;BME280;41837;55.700;37.984;2023-07-13T00:35:13;99130.16;;;11.97;100.00
55932;BME280;41837;55.700;37.984;2023-07-13T00:37:40;99135.31;;;11.99;100.00
55932;BME280;41837;55.700;37.984;2023-07-13T00:40:09;99133.53;;;11.99;100.00
55932;BME280;41837;55.700;37.984;2023-07-13T00:42:35;99131.94;;;11.97;100.00
55932;BME280;41837;55.700;37.984;2023-07-13T00:47:53;99134.28;;;12.01;100.00
55932;BME280;41837;55.700;37.984;2023-07-13T00:50:21;99133.03;;;11.92;100.00
55932;BME280;41837;55.700;37.984;2023-07-13T00:52:51;99131.94;;;11.97;100.00
55932;BME280;41837;55.700;37.984;2023-07-13T00:55:21;99135.22;;;12.00;100.00
55932;BME280;41837;55.700;37.984;2023-07-13T00:57:48;99138.59;;;12.02;100.00
55932;BME280;41837;55.700;37.984;2023-07-13T01:00:15;99137.06;;;11.98;100.00
55932;BME280;41837;55.700;37.984;2023-07-13T01:02:45;99132.59;;;12.00;100.00
55932;BME280;41837;55.700;37.984;2023-07-13T01:05:14;99136.06;;;12.01;100.00
55932;BME280;41837;55.700;37.984;2023-07-13T01:07:42;99130.91;;;11.99;100.00
55932;BME280;41837;55.700;37.984;2023-07-13T01:10:10;99133.63;;;11.98;100.00
55932;BME280;41837;55.700;37.984;2023-07-13T01:12:52;99133.19;;;12.05;100.00
55932;BME280;41837;55.700;37.984;2023-07-13T01:15:45;99131.47;;;12.04;100.00
55932;BME280;41837;55.700;37.984;2023-07-13T01:18:19;99128.03;;;12.04;100.00
55932;BME280;41837;55.700;37.984;2023-07-13T01:20:58;99134.19;;;12.03;100.00
55932;BME280;41837;55.700;37.984;2023-07-13T01:23:27;99129.59;;;12.06;100.00
55932;BME280;41837;55.700;37.984;2023-07-13T01:25:56;99125.59;;;12.01;100.00
55932;BME280;41837;55.700;37.984;2023-07-13T01:28:23;99124.19;;;12.09;100.00
55932;BME280;41837;55.700;37.984;2023-07-13T01:30:54;99120.56;;;12.12;100.00
55932;BME280;41837;55.700;37.984;2023-07-13T01:33:22;99117.16;;;12.10;100.00
55932;BME280;41837;55.700;37.984;2023-07-13T01:35:50;99115.41;;;12.10;100.00
55932;BME280;41837;55.700;37.984;2023-07-13T01:38:18;99117.63;;;12.02;100.00
55932;BME280;41837;55.700;37.984;2023-07-13T01:40:49;99120.34;;;12.01;100.00
55932;BME280;41837;55.700;37.984;2023-07-13T01:43:15;99119.13;;;12.06;100.00
55932;BME280;41837;55.700;37.984;2023-07-13T01:45:44;99115.28;;;11.98;100.00
55932;BME280;41837;55.700;37.984;2023-07-13T01:48:11;99120.16;;;12.04;100.00
55932;BME280;41837;55.700;37.984;2023-07-13T01:50:38;99127.94;;;12.05;100.00
55932;BME280;41837;55.700;37.984;2023-07-13T01:53:04;99129.22;;;11.98;100.00
55932;BME280;41837;55.700;37.984;2023-07-13T01:55:30;99122.88;;;12.02;100.00
55932;BME280;41837;55.700;37.984;2023-07-13T01:57:57;99116.41;;;12.08;100.00
55932;BME280;41837;55.700;37.984;2023-07-13T02:00:24;99121.31;;;12.14;100.00
55932;BME280;41837;55.700;37.984;2023-07-13T02:02:51;99094.44;;;12.10;100.00
55932;BME280;41837;55.700;37.984;2023-07-13T02:05:17;99114.84;;;12.05;100.00
55932;BME280;41837;55.700;37.984;2023-07-13T02:07:44;99113.72;;;12.09;100.00
55932;BME280;41837;55.700;37.984;2023-07-13T02:10:11;99110.00;;;12.13;100.00
55932;BME280;41837;55.700;37.984;2023-07-13T02:12:39;99113.44;;;12.14;100.00
55932;BME280;41837;55.700;37.984;2023-07-13T02:15:05;99111.00;;;12.11;100.00
55932;BME280;41837;55.700;37.984;2023-07-13T02:17:35;99115.31;;;12.12;100.00
55932;BME280;41837;55.700;37.984;2023-07-13T02:20:04;99111.91;;;12.10;100.00
55932;BME280;41837;55.700;37.984;2023-07-13T02:22:33;99104.19;;;12.23;100.00
55932;BME280;41837;55.700;37.984;2023-07-13T02:24:59;99116.16;;;12.12;100.00
55932;BME280;41837;55.700;37.984;2023-07-13T02:27:25;99106.59;;;12.11;100.00
55932;BME280;41837;55.700;37.984;2023-07-13T02:29:52;99103.81;;;12.29;100.00
55932;BME280;41837;55.700;37.984;2023-07-13T02:32:20;99097.44;;;12.19;100.00
55932;BME280;41837;55.700;37.984;2023-07-13T02:34:47;99099.50;;;12.28;100.00
55932;BME280;41837;55.700;37.984;2023-07-13T02:37:13;99089.78;;;12.16;100.00
55932;BME280;41837;55.700;37.984;2023-07-13T02:39:40;99097.16;;;12.23;100.00
55932;BME280;41837;55.700;37.984;2023-07-13T02:42:07;99099.41;;;12.29;100.00
55932;BME280;41837;55.700;37.984;2023-07-13T02:44:33;99093.22;;;12.45;100.00
55932;BME280;41837;55.700;37.984;2023-07-13T02:47:00;99089.59;;;12.47;100.00
55932;BME280;41837;55.700;37.984;2023-07-13T02:49:26;99089.03;;;12.42;100.00
55932;BME280;41837;55.700;37.984;2023-07-13T02:51:53;99100.34;;;12.43;100.00
55932;BME280;41837;55.700;37.984;2023-07-13T02:54:19;99090.72;;;12.43;100.00
55932;BME280;41837;55.700;37.984;2023-07-13T02:56:45;99097.06;;;12.54;100.00
55932;BME280;41837;55.700;37.984;2023-07-13T02:59:11;99089.19;;;12.54;100.00
55932;BME280;41837;55.700;37.984;2023-07-13T03:01:38;99090.91;;;12.55;100.00
55932;BME280;41837;55.700;37.984;2023-07-13T03:04:05;99090.88;;;12.69;100.00
55932;BME280;41837;55.700;37.984;2023-07-13T03:06:34;99093.81;;;12.64;100.00
55932;BME280;41837;55.700;37.984;2023-07-13T03:09:01;99091.53;;;12.73;100.00
55932;BME280;41837;55.700;37.984;2023-07-13T03:11:30;99086.94;;;12.62;100.00
55932;BME280;41837;55.700;37.984;2023-07-13T03:14:04;99096.50;;;12.63;100.00
55932;BME280;41837;55.700;37.984;2023-07-13T03:16:35;99086.22;;;12.60;100.00
55932;BME280;41837;55.700;37.984;2023-07-13T03:19:02;99092.09;;;12.63;100.00
55932;BME280;41837;55.700;37.984;2023-07-13T03:21:29;99088.66;;;12.63;100.00
55932;BME280;41837;55.700;37.984;2023-07-13T03:23:55;99091.00;;;12.53;100.00
55932;BME280;41837;55.700;37.984;2023-07-13T03:26:22;99093.41;;;12.71;100.00
55932;BME280;41837;55.700;37.984;2023-07-13T03:28:48;99095.66;;;12.62;100.00
55932;BME280;41837;55.700;37.984;2023-07-13T03:31:23;99096.13;;;12.69;100.00
55932;BME280;41837;55.700;37.984;2023-07-13T03:33:51;99094.44;;;12.54;100.00
55932;BME280;41837;55.700;37.984;2023-07-13T03:36:23;99103.78;;;12.72;100.00
55932;BME280;41837;55.700;37.984;2023-07-13T03:38:55;99106.97;;;12.77;100.00
55932;BME280;41837;55.700;37.984;2023-07-13T03:41:26;99096.66;;;12.74;100.00
55932;BME280;41837;55.700;37.984;2023-07-13T03:43:53;99103.78;;;12.86;100.00
55932;BME280;41837;55.700;37.984;2023-07-13T03:46:22;99098.00;;;12.81;100.00
55932;BME280;41837;55.700;37.984;2023-07-13T03:48:49;99097.81;;;12.70;100.00
55932;BME280;41837;55.700;37.984;2023-07-13T03:51:16;99106.31;;;12.74;100.00
55932;BME280;41837;55.700;37.984;2023-07-13T03:53:44;99099.47;;;12.71;100.00
55932;BME280;41837;55.700;37.984;2023-07-13T03:56:14;99101.25;;;12.85;100.00
55932;BME280;41837;55.700;37.984;2023-07-13T03:58:43;99100.72;;;12.65;100.00
55932;BME280;41837;55.700;37.984;2023-07-13T04:01:23;99102.09;;;12.71;100.00
55932;BME280;41837;55.700;37.984;2023-07-13T04:03:51;99096.38;;;12.79;100.00
55932;BME280;41837;55.700;37.984;2023-07-13T04:06:27;99108.91;;;12.88;100.00
55932;BME280;41837;55.700;37.984;2023-07-13T04:08:57;99106.75;;;12.95;100.00
55932;BME280;41837;55.700;37.984;2023-07-13T04:11:27;99098.03;;;13.09;100.00
55932;BME280;41837;55.700;37.984;2023-07-13T04:13:54;99090.47;;;13.17;100.00
55932;BME280;41837;55.700;37.984;2023-07-13T04:16:21;99098.06;;;13.21;100.00
55932;BME280;41837;55.700;37.984;2023-07-13T04:18:48;99092.91;;;13.34;100.00
55932;BME280;41837;55.700;37.984;2023-07-13T04:21:16;99096.56;;;13.32;100.00
55932;BME280;41837;55.700;37.984;2023-07-13T04:23:42;99100.63;;;13.50;100.00
55932;BME280;41837;55.700;37.984;2023-07-13T04:26:09;99095.06;;;13.28;100.00
55932;BME280;41837;55.700;37.984;2023-07-13T04:28:35;99097.53;;;13.16;100.00
55932;BME280;41837;55.700;37.984;2023-07-13T04:31:01;99104.47;;;13.17;100.00
55932;BME280;41837;55.700;37.984;2023-07-13T04:33:27;99111.44;;;13.31;100.00
55932;BME280;41837;55.700;37.984;2023-07-13T04:35:55;99105.16;;;13.34;100.00
55932;BME280;41837;55.700;37.984;2023-07-13T04:38:28;99111.38;;;13.33;100.00
55932;BME280;41837;55.700;37.984;2023-07-13T04:40:56;99109.31;;;13.23;100.00
55932;BME280;41837;55.700;37.984;2023-07-13T04:43:23;99106.28;;;13.30;100.00
55932;BME280;41837;55.700;37.984;2023-07-13T04:45:51;99113.81;;;13.36;100.00
55932;BME280;41837;55.700;37.984;2023-07-13T04:48:18;99111.84;;;13.52;100.00
55932;BME280;41837;55.700;37.984;2023-07-13T04:50:45;99098.88;;;13.64;100.00
55932;BME280;41837;55.700;37.984;2023-07-13T04:53:12;99108.44;;;13.65;100.00
55932;BME280;41837;55.700;37.984;2023-07-13T04:55:39;99103.97;;;13.52;100.00
55932;BME280;41837;55.700;37.984;2023-07-13T04:58:07;99109.38;;;13.64;100.00
55932;BME280;41837;55.700;37.984;2023-07-13T05:00:33;99111.72;;;13.81;100.00
55932;BME280;41837;55.700;37.984;2023-07-13T05:03:00;99108.38;;;13.92;100.00
55932;BME280;41837;55.700;37.984;2023-07-13T05:05:26;99099.25;;;13.97;100.00
55932;BME280;41837;55.700;37.984;2023-07-13T05:07:53;99107.72;;;13.88;100.00
55932;BME280;41837;55.700;37.984;2023-07-13T05:10:20;99100.50;;;13.92;100.00
55932;BME280;41837;55.700;37.984;2023-07-13T05:12:46;99098.41;;;13.97;100.00
55932;BME280;41837;55.700;37.984;2023-07-13T05:15:13;99106.25;;;13.84;100.00
55932;BME280;41837;55.700;37.984;2023-07-13T05:17:40;99095.97;;;13.94;100.00
55932;BME280;41837;55.700;37.984;2023-07-13T05:20:07;99100.59;;;13.90;100.00
55932;BME280;41837;55.700;37.984;2023-07-13T05:22:34;99106.06;;;13.87;100.00
55932;BME280;41837;55.700;37.984;2023-07-13T05:25:06;99111.66;;;13.95;100.00
55932;BME280;41837;55.700;37.984;2023-07-13T05:27:34;99101.25;;;14.20;100.00
55932;BME280;41837;55.700;37.984;2023-07-13T05:30:02;99102.00;;;14.34;100.00
55932;BME280;41837;55.700;37.984;2023-07-13T05:32:32;99088.50;;;14.39;100.00
55932;BME280;41837;55.700;37.984;2023-07-13T05:34:59;99096.00;;;14.32;100.00
55932;BME280;41837;55.700;37.984;2023-07-13T05:37:25;99096.09;;;14.44;100.00
55932;BME280;41837;55.700;37.984;2023-07-13T05:39:52;99081.06;;;14.59;100.00
55932;BME280;41837;55.700;37.984;2023-07-13T05:42:21;99088.41;;;14.66;100.00
55932;BME280;41837;55.700;37.984;2023-07-13T05:44:47;99090.53;;;14.98;100.00
55932;BME280;41837;55.700;37.984;2023-07-13T05:47:14;99085.84;;;14.78;100.00
55932;BME280;41837;55.700;37.984;2023-07-13T05:49:41;99083.59;;;15.21;100.00
55932;BME280;41837;55.700;37.984;2023-07-13T05:52:07;99072.47;;;15.18;100.00
55932;BME280;41837;55.700;37.984;2023-07-13T05:54:33;99085.00;;;15.14;100.00
55932;BME280;41837;55.700;37.984;2023-07-13T05:57:00;99077.66;;;15.06;100.00
55932;BME280;41837;55.700;37.984;2023-07-13T05:59:26;99083.78;;;15.31;100.00
55932;BME280;41837;55.700;37.984;2023-07-13T06:01:53;99080.97;;;15.45;100.00
55932;BME280;41837;55.700;37.984;2023-07-13T06:04:19;99071.13;;;15.72;100.00
55932;BME280;41837;55.700;37.984;2023-07-13T06:06:46;99060.28;;;15.88;100.00
55932;BME280;41837;55.700;37.984;2023-07-13T06:09:12;99072.81;;;16.19;100.00
55932;BME280;41837;55.700;37.984;2023-07-13T06:11:39;99060.06;;;16.02;100.00
55932;BME280;41837;55.700;37.984;2023-07-13T06:14:05;99053.50;;;16.30;100.00
55932;BME280;41837;55.700;37.984;2023-07-13T06:16:31;99057.34;;;16.37;100.00
55932;BME280;41837;55.700;37.984;2023-07-13T06:18:57;99053.16;;;16.35;100.00
55932;BME280;41837;55.700;37.984;2023-07-13T06:21:24;99048.22;;;16.41;100.00
55932;BME280;41837;55.700;37.984;2023-07-13T06:23:51;99055.88;;;16.56;100.00
55932;BME280;41837;55.700;37.984;2023-07-13T06:26:19;99057.72;;;16.33;100.00
55932;BME280;41837;55.700;37.984;2023-07-13T06:28:46;99042.56;;;16.12;100.00
55932;BME280;41837;55.700;37.984;2023-07-13T06:31:13;99049.41;;;16.03;100.00
55932;BME280;41837;55.700;37.984;2023-07-13T06:33:40;99043.91;;;16.18;100.00
55932;BME280;41837;55.700;37.984;2023-07-13T06:36:07;99037.28;;;15.90;100.00
55932;BME280;41837;55.700;37.984;2023-07-13T06:38:35;99030.63;;;15.73;100.00
55932;BME280;41837;55.700;37.984;2023-07-13T06:41:05;99034.31;;;15.94;100.00
55932;BME280;41837;55.700;37.984;2023-07-13T06:43:31;99024.34;;;15.98;100.00
55932;BME280;41837;55.700;37.984;2023-07-13T06:45:57;99024.69;;;15.93;100.00
55932;BME280;41837;55.700;37.984;2023-07-13T06:48:23;99027.09;;;15.85;100.00
55932;BME280;41837;55.700;37.984;2023-07-13T06:50:50;99029.19;;;15.69;100.00
55932;BME280;41837;55.700;37.984;2023-07-13T06:53:18;99017.16;;;15.89;100.00
55932;BME280;41837;55.700;37.984;2023-07-13T06:55:45;99023.28;;;15.89;100.00
55932;BME280;41837;55.700;37.984;2023-07-13T06:58:16;99024.59;;;15.95;99.16
55932;BME280;41837;55.700;37.984;2023-07-13T07:00:42;99017.88;;;16.36;99.84
55932;BME280;41837;55.700;37.984;2023-07-13T07:03:09;99026.78;;;16.35;98.18
55932;BME280;41837;55.700;37.984;2023-07-13T07:05:35;99022.44;;;16.45;97.46
55932;BME280;41837;55.700;37.984;2023-07-13T07:08:02;99021.91;;;16.85;96.77
55932;BME280;41837;55.700;37.984;2023-07-13T07:10:30;99021.69;;;16.77;92.76
55932;BME280;41837;55.700;37.984;2023-07-13T07:12:56;99026.75;;;16.57;91.29
55932;BME280;41837;55.700;37.984;2023-07-13T07:15:22;99030.38;;;16.56;93.17
55932;BME280;41837;55.700;37.984;2023-07-13T07:17:48;99039.25;;;16.33;93.55
55932;BME280;41837;55.700;37.984;2023-07-13T07:20:15;99049.16;;;16.29;94.32
55932;BME280;41837;55.700;37.984;2023-07-13T07:22:44;99056.97;;;16.08;98.52
55932;BME280;41837;55.700;37.984;2023-07-13T07:25:10;99054.28;;;15.97;100.00
55932;BME280;41837;55.700;37.984;2023-07-13T07:27:37;99048.16;;;15.85;100.00
55932;BME280;41837;55.700;37.984;2023-07-13T07:30:05;99051.81;;;15.71;100.00
55932;BME280;41837;55.700;37.984;2023-07-13T07:32:32;99046.09;;;15.42;100.00
55932;BME280;41837;55.700;37.984;2023-07-13T07:34:58;99055.88;;;15.28;100.00
55932;BME280;41837;55.700;37.984;2023-07-13T07:37:25;99059.34;;;15.29;100.00
55932;BME280;41837;55.700;37.984;2023-07-13T07:39:51;99062.03;;;15.16;100.00
55932;BME280;41837;55.700;37.984;2023-07-13T07:42:18;99060.56;;;15.12;100.00
55932;BME280;41837;55.700;37.984;2023-07-13T07:44:46;99057.09;;;15.11;100.00
55932;BME280;41837;55.700;37.984;2023-07-13T07:47:12;99067.59;;;15.24;100.00
55932;BME280;41837;55.700;37.984;2023-07-13T07:49:38;99066.25;;;15.43;100.00
55932;BME280;41837;55.700;37.984;2023-07-13T07:52:05;99067.72;;;15.58;100.00
55932;BME280;41837;55.700;37.984;2023-07-13T07:54:31;99071.53;;;15.54;100.00
55932;BME280;41837;55.700;37.984;2023-07-13T07:56:57;99076.47;;;15.59;100.00
55932;BME280;41837;55.700;37.984;2023-07-13T07:59:23;99077.22;;;15.72;100.00
55932;BME280;41837;55.700;37.984;2023-07-13T08:01:51;99083.44;;;16.07;100.00
55932;BME280;41837;55.700;37.984;2023-07-13T08:04:19;99078.66;;;16.00;100.00
55932;BME280;41837;55.700;37.984;2023-07-13T08:06:46;99079.00;;;15.96;100.00
55932;BME280;41837;55.700;37.984;2023-07-13T08:09:12;99082.22;;;15.64;100.00
55932;BME280;41837;55.700;37.984;2023-07-13T08:11:38;99080.28;;;15.55;100.00
55932;BME280;41837;55.700;37.984;2023-07-13T08:14:05;99085.91;;;15.50;100.00
55932;BME280;41837;55.700;37.984;2023-07-13T08:16:31;99101.63;;;15.39;100.00
55932;BME280;41837;55.700;37.984;2023-07-13T08:18:58;99099.34;;;15.34;100.00
55932;BME280;41837;55.700;37.984;2023-07-13T08:21:25;99111.34;;;15.38;100.00
55932;BME280;41837;55.700;37.984;2023-07-13T08:23:51;99097.69;;;15.33;100.00
55932;BME280;41837;55.700;37.984;2023-07-13T08:26:17;99103.25;;;15.28;100.00
55932;BME280;41837;55.700;37.984;2023-07-13T08:28:44;99107.63;;;15.17;100.00
55932;BME280;41837;55.700;37.984;2023-07-13T08:31:10;99104.28;;;15.15;100.00
55932;BME280;41837;55.700;37.984;2023-07-13T08:33:36;99100.56;;;15.17;100.00
55932;BME280;41837;55.700;37.984;2023-07-13T08:36:03;99097.66;;;15.09;100.00
55932;BME280;41837;55.700;37.984;2023-07-13T08:38:31;99097.78;;;15.07;100.00
55932;BME280;41837;55.700;37.984;2023-07-13T08:40:57;99087.75;;;15.13;100.00
55932;BME280;41837;55.700;37.984;2023-07-13T08:43:35;99089.72;;;15.22;100.00
55932;BME280;41837;55.700;37.984;2023-07-13T08:46:16;99090.28;;;15.38;100.00
55932;BME280;41837;55.700;37.984;2023-07-13T08:48:47;99083.47;;;15.47;100.00
55932;BME280;41837;55.700;37.984;2023-07-13T08:51:35;99084.69;;;15.43;100.00
55932;BME280;41837;55.700;37.984;2023-07-13T08:54:30;99088.59;;;15.37;100.00
55932;BME280;41837;55.700;37.984;2023-07-13T08:56:56;99093.13;;;15.35;100.00
55932;BME280;41837;55.700;37.984;2023-07-13T08:59:27;99096.38;;;15.39;100.00
55932;BME280;41837;55.700;37.984;2023-07-13T09:04:36;99104.06;;;15.18;100.00
55932;BME280;41837;55.700;37.984;2023-07-13T09:10:06;99100.47;;;15.19;100.00
55932;BME280;41837;55.700;37.984;2023-07-13T09:13:04;99095.53;;;15.38;100.00
55932;BME280;41837;55.700;37.984;2023-07-13T09:15:42;99088.25;;;15.42;100.00
55932;BME280;41837;55.700;37.984;2023-07-13T09:18:35;99091.31;;;15.60;100.00
55932;BME280;41837;55.700;37.984;2023-07-13T09:21:15;99096.09;;;15.79;100.00
55932;BME280;41837;55.700;37.984;2023-07-13T09:23:42;99101.84;;;15.84;100.00
55932;BME280;41837;55.700;37.984;2023-07-13T09:26:20;99098.88;;;16.00;100.00
55932;BME280;41837;55.700;37.984;2023-07-13T09:28:49;99106.47;;;15.45;100.00
55932;BME280;41837;55.700;37.984;2023-07-13T09:31:26;99112.91;;;15.41;100.00
55932;BME280;41837;55.700;37.984;2023-07-13T09:33:55;99114.03;;;15.50;100.00
55932;BME280;41837;55.700;37.984;2023-07-13T09:39:05;99129.81;;;15.25;100.00
55932;BME280;41837;55.700;37.984;2023-07-13T09:44:14;99131.22;;;15.42;100.00
55932;BME280;41837;55.700;37.984;2023-07-13T09:46:46;99125.75;;;15.45;100.00
55932;BME280;41837;55.700;37.984;2023-07-13T09:49:13;99121.31;;;15.70;100.00
55932;BME280;41837;55.700;37.984;2023-07-13T09:51:42;99116.41;;;15.41;100.00
55932;BME280;41837;55.700;37.984;2023-07-13T09:54:21;99135.94;;;15.26;100.00
55932;BME280;41837;55.700;37.984;2023-07-13T09:56:57;99134.78;;;15.17;100.00
55932;BME280;41837;55.700;37.984;2023-07-13T09:59:33;99122.03;;;15.24;100.00
55932;BME280;41837;55.700;37.984;2023-07-13T10:02:00;99119.56;;;15.09;100.00
55932;BME280;41837;55.700;37.984;2023-07-13T10:04:34;99121.91;;;15.01;100.00
55932;BME280;41837;55.700;37.984;2023-07-13T10:07:12;99121.81;;;14.90;100.00
55932;BME280;41837;55.700;37.984;2023-07-13T10:09:41;99120.56;;;14.96;100.00
55932;BME280;41837;55.700;37.984;2023-07-13T10:12:15;99125.56;;;15.11;100.00
55932;BME280;41837;55.700;37.984;2023-07-13T10:14:42;99122.84;;;15.00;100.00
55932;BME280;41837;55.700;37.984;2023-07-13T10:17:13;99130.22;;;14.95;100.00
55932;BME280;41837;55.700;37.984;2023-07-13T10:19:41;99122.69;;;14.90;100.00
55932;BME280;41837;55.700;37.984;2023-07-13T10:24:51;99132.22;;;14.91;100.00
55932;BME280;41837;55.700;37.984;2023-07-13T10:27:20;99125.88;;;15.07;100.00
55932;BME280;41837;55.700;37.984;2023-07-13T10:29:52;99118.78;;;14.83;100.00
55932;BME280;41837;55.700;37.984;2023-07-13T10:32:24;99129.97;;;14.48;100.00
55932;BME280;41837;55.700;37.984;2023-07-13T10:34:51;99130.06;;;14.47;100.00
55932;BME280;41837;55.700;37.984;2023-07-13T10:37:26;99128.56;;;14.17;100.00
55932;BME280;41837;55.700;37.984;2023-07-13T10:39:56;99130.91;;;14.34;100.00
55932;BME280;41837;55.700;37.984;2023-07-13T10:42:30;99137.84;;;14.23;100.00
55932;BME280;41837;55.700;37.984;2023-07-13T10:44:58;99148.34;;;14.10;100.00
55932;BME280;41837;55.700;37.984;2023-07-13T10:47:25;99147.91;;;13.90;100.00
55932;BME280;41837;55.700;37.984;2023-07-13T10:49:56;99152.72;;;13.84;100.00
55932;BME280;41837;55.700;37.984;2023-07-13T10:52:47;99161.03;;;13.90;100.00
55932;BME280;41837;55.700;37.984;2023-07-13T10:55:38;99161.81;;;13.78;100.00
55932;BME280;41837;55.700;37.984;2023-07-13T10:58:14;99166.97;;;13.79;100.00
55932;BME280;41837;55.700;37.984;2023-07-13T11:03:17;99170.06;;;13.59;100.00
55932;BME280;41837;55.700;37.984;2023-07-13T11:05:48;99162.38;;;13.56;100.00
55932;BME280;41837;55.700;37.984;2023-07-13T11:08:33;99170.59;;;13.37;100.00
55932;BME280;41837;55.700;37.984;2023-07-13T11:18:46;99183.00;;;13.35;100.00
55932;BME280;41837;55.700;37.984;2023-07-13T11:21:26;99176.44;;;13.28;100.00
55932;BME280;41837;55.700;37.984;2023-07-13T11:24:02;99175.97;;;13.21;100.00
55932;BME280;41837;55.700;37.984;2023-07-13T11:31:42;99190.28;;;13.30;100.00
55932;BME280;41837;55.700;37.984;2023-07-13T11:34:14;99179.97;;;13.27;100.00
55932;BME280;41837;55.700;37.984;2023-07-13T11:36:45;99192.19;;;13.28;100.00
55932;BME280;41837;55.700;37.984;2023-07-13T11:39:31;99170.00;;;13.04;100.00
55932;BME280;41837;55.700;37.984;2023-07-13T11:42:12;99190.53;;;13.12;100.00
55932;BME280;41837;55.700;37.984;2023-07-13T11:44:57;99185.38;;;13.11;100.00
55932;BME280;41837;55.700;37.984;2023-07-13T11:47:25;99180.13;;;13.11;100.00
55932;BME280;41837;55.700;37.984;2023-07-13T11:49:55;99179.25;;;13.10;100.00
55932;BME280;41837;55.700;37.984;2023-07-13T11:52:33;99174.69;;;13.14;100.00
55932;BME280;41837;55.700;37.984;2023-07-13T11:55:05;99175.88;;;13.08;100.00
55932;BME280;41837;55.700;37.984;2023-07-13T11:57:56;99181.13;;;13.08;100.00
55932;BME280;41837;55.700;37.984;2023-07-13T12:00:28;99178.41;;;13.10;100.00
55932;BME280;41837;55.700;37.984;2023-07-13T12:02:57;99184.81;;;13.05;100.00
55932;BME280;41837;55.700;37.984;2023-07-13T12:05:25;99190.88;;;13.06;100.00
55932;BME280;41837;55.700;37.984;2023-07-13T12:07:51;99180.75;;;13.14;100.00
55932;BME280;41837;55.700;37.984;2023-07-13T12:10:27;99191.06;;;13.17;100.00
55932;BME280;41837;55.700;37.984;2023-07-13T12:13:02;99179.72;;;13.17;100.00
55932;BME280;41837;55.700;37.984;2023-07-13T12:15:39;99193.97;;;13.13;100.00
55932;BME280;41837;55.700;37.984;2023-07-13T12:18:22;99191.91;;;13.18;100.00
55932;BME280;41837;55.700;37.984;2023-07-13T12:20:50;99194.91;;;13.26;100.00
55932;BME280;41837;55.700;37.984;2023-07-13T12:25:54;99198.25;;;13.28;100.00
55932;BME280;41837;55.700;37.984;2023-07-13T12:28:45;99192.75;;;13.33;100.00
55932;BME280;41837;55.700;37.984;2023-07-13T12:33:59;99185.41;;;13.23;100.00
55932;BME280;41837;55.700;37.984;2023-07-13T12:36:26;99192.47;;;13.37;100.00
55932;BME280;41837;55.700;37.984;2023-07-13T12:38:58;99189.53;;;13.42;100.00
55932;BME280;41837;55.700;37.984;2023-07-13T12:41:30;99187.88;;;13.41;100.00
55932;BME280;41837;55.700;37.984;2023-07-13T12:43:58;99191.13;;;13.45;100.00
55932;BME280;41837;55.700;37.984;2023-07-13T12:46:26;99182.72;;;13.39;100.00
55932;BME280;41837;55.700;37.984;2023-07-13T12:48:57;99179.69;;;13.46;100.00
55932;BME280;41837;55.700;37.984;2023-07-13T12:51:26;99186.28;;;13.38;100.00
55932;BME280;41837;55.700;37.984;2023-07-13T12:54:17;99179.13;;;13.40;100.00
55932;BME280;41837;55.700;37.984;2023-07-13T12:56:45;99181.41;;;13.32;100.00
55932;BME280;41837;55.700;37.984;2023-07-13T12:59:19;99188.44;;;13.32;100.00
55932;BME280;41837;55.700;37.984;2023-07-13T13:01:46;99179.44;;;13.36;100.00
55932;BME280;41837;55.700;37.984;2023-07-13T13:04:16;99179.78;;;13.30;100.00
55932;BME280;41837;55.700;37.984;2023-07-13T13:06:43;99180.56;;;13.17;100.00
55932;BME280;41837;55.700;37.984;2023-07-13T13:09:12;99175.13;;;13.20;100.00
55932;BME280;41837;55.700;37.984;2023-07-13T13:11:40;99181.41;;;13.32;100.00
55932;BME280;41837;55.700;37.984;2023-07-13T13:14:07;99180.81;;;13.27;100.00
55932;BME280;41837;55.700;37.984;2023-07-13T13:16:47;99180.63;;;13.30;100.00
55932;BME280;41837;55.700;37.984;2023-07-13T13:19:21;99166.81;;;13.14;100.00
55932;BME280;41837;55.700;37.984;2023-07-13T13:21:49;99183.94;;;13.34;100.00
55932;BME280;41837;55.700;37.984;2023-07-13T13:24:23;99185.38;;;13.11;100.00
55932;BME280;41837;55.700;37.984;2023-07-13T13:26:51;99189.19;;;13.05;100.00
55932;BME280;41837;55.700;37.984;2023-07-13T13:29:21;99182.19;;;13.05;100.00